sensor_id;sensor_type;location;lat;lon;timestamp;P1;durP1;ratioP1;P2;durP2;ratioP2
24137;SDS011;17947;50.672;6.076;2022-08-25T00:00:28;2.22;;;1.90;;
24137;SDS011;17947;50.672;6.076;2022-08-25T00:02:55;2.05;;;1.80;;
24137;SDS011;17947;50.672;6.076;2022-08-25T00:05:22;2.22;;;1.98;;
24137;SDS011;17947;50.672;6.076;2022-08-25T00:07:50;1.83;;;1.73;;
24137;SDS011;17947;50.672;6.076;2022-08-25T00:10:15;2.00;;;1.90;;
24137;SDS011;17947;50.672;6.076;2022-08-25T00:12:42;1.95;;;1.85;;
24137;SDS011;17947;50.672;6.076;2022-08-25T00:15:08;2.17;;;1.98;;
24137;SDS011;17947;50.672;6.076;2022-08-25T00:17:35;2.10;;;1.88;;
24137;SDS011;17947;50.672;6.076;2022-08-25T00:20:01;2.20;;;2.00;;
24137;SDS011;17947;50.672;6.076;2022-08-25T00:22:27;2.33;;;1.80;;
24137;SDS011;17947;50.672;6.076;2022-08-25T00:24:53;1.80;;;1.70;;
24137;SDS011;17947;50.672;6.076;2022-08-25T00:27:19;1.83;;;1.73;;
24137;SDS011;17947;50.672;6.076;2022-08-25T00:29:45;2.05;;;1.85;;
24137;SDS011;17947;50.672;6.076;2022-08-25T00:32:11;1.80;;;1.70;;
24137;SDS011;17947;50.672;6.076;2022-08-25T00:34:37;1.88;;;1.77;;
24137;SDS011;17947;50.672;6.076;2022-08-25T00:37:04;2.15;;;2.00;;
24137;SDS011;17947;50.672;6.076;2022-08-25T00:39:31;2.00;;;1.80;;
24137;SDS011;17947;50.672;6.076;2022-08-25T00:41:57;2.00;;;1.80;;
24137;SDS011;17947;50.672;6.076;2022-08-25T00:44:24;1.60;;;1.50;;
24137;SDS011;17947;50.672;6.076;2022-08-25T00:46:52;1.83;;;1.67;;
24137;SDS011;17947;50.672;6.076;2022-08-25T00:49:29;1.88;;;1.77;;
24137;SDS011;17947;50.672;6.076;2022-08-25T00:54:36;1.92;;;1.83;;
24137;SDS011;17947;50.672;6.076;2022-08-25T00:57:05;1.85;;;1.67;;
24137;SDS011;17947;50.672;6.076;2022-08-25T00:59:32;1.80;;;1.70;;
24137;SDS011;17947;50.672;6.076;2022-08-25T01:01:58;2.20;;;2.00;;
24137;SDS011;17947;50.672;6.076;2022-08-25T01:04:25;2.00;;;1.80;;
24137;SDS011;17947;50.672;6.076;2022-08-25T01:06:51;1.88;;;1.77;;
24137;SDS011;17947;50.672;6.076;2022-08-25T01:09:17;2.10;;;1.90;;
24137;SDS011;17947;50.672;6.076;2022-08-25T01:11:44;1.73;;;1.63;;
24137;SDS011;17947;50.672;6.076;2022-08-25T01:14:12;2.08;;;1.88;;
24137;SDS011;17947;50.672;6.076;2022-08-25T01:16:39;1.77;;;1.67;;
24137;SDS011;17947;50.672;6.076;2022-08-25T01:19:06;1.90;;;1.80;;
24137;SDS011;17947;50.672;6.076;2022-08-25T01:21:37;1.75;;;1.65;;
24137;SDS011;17947;50.672;6.076;2022-08-25T01:24:04;1.70;;;1.60;;
24137;SDS011;17947;50.672;6.076;2022-08-25T01:26:32;2.20;;;2.00;;
24137;SDS011;17947;50.672;6.076;2022-08-25T01:28:59;1.92;;;1.73;;
24137;SDS011;17947;50.672;6.076;2022-08-25T01:31:45;1.90;;;1.80;;
24137;SDS011;17947;50.672;6.076;2022-08-25T01:34:11;2.13;;;1.90;;
24137;SDS011;17947;50.672;6.076;2022-08-25T01:36:38;2.00;;;1.90;;
24137;SDS011;17947;50.672;6.076;2022-08-25T01:39:05;1.95;;;1.85;;
24137;SDS011;17947;50.672;6.076;2022-08-25T01:41:35;2.03;;;1.83;;
24137;SDS011;17947;50.672;6.076;2022-08-25T01:44:05;1.90;;;1.77;;
24137;SDS011;17947;50.672;6.076;2022-08-25T01:46:32;2.10;;;2.00;;
24137;SDS011;17947;50.672;6.076;2022-08-25T01:48:59;1.95;;;1.75;;
24137;SDS011;17947;50.672;6.076;2022-08-25T01:51:27;2.03;;;1.92;;
24137;SDS011;17947;50.672;6.076;2022-08-25T01:53:53;2.13;;;2.00;;
24137;SDS011;17947;50.672;6.076;2022-08-25T01:56:19;1.80;;;1.70;;
24137;SDS011;17947;50.672;6.076;2022-08-25T01:58:46;1.73;;;1.63;;
24137;SDS011;17947;50.672;6.076;2022-08-25T02:01:14;1.95;;;1.85;;
24137;SDS011;17947;50.672;6.076;2022-08-25T02:03:42;1.90;;;1.80;;
24137;SDS011;17947;50.672;6.076;2022-08-25T02:06:13;2.08;;;1.90;;
24137;SDS011;17947;50.672;6.076;2022-08-25T02:08:39;2.00;;;1.90;;
24137;SDS011;17947;50.672;6.076;2022-08-25T02:11:05;2.22;;;2.03;;
24137;SDS011;17947;50.672;6.076;2022-08-25T02:13:31;2.00;;;1.80;;
24137;SDS011;17947;50.672;6.076;2022-08-25T02:15:57;2.13;;;1.67;;
24137;SDS011;17947;50.672;6.076;2022-08-25T02:18:24;2.13;;;1.92;;
24137;SDS011;17947;50.672;6.076;2022-08-25T02:20:50;2.17;;;2.03;;
24137;SDS011;17947;50.672;6.076;2022-08-25T02:23:16;2.00;;;1.90;;
24137;SDS011;17947;50.672;6.076;2022-08-25T02:25:42;2.10;;;1.90;;
24137;SDS011;17947;50.672;6.076;2022-08-25T02:28:09;1.90;;;1.80;;
24137;SDS011;17947;50.672;6.076;2022-08-25T02:30:36;1.92;;;1.83;;
24137;SDS011;17947;50.672;6.076;2022-08-25T02:33:02;2.20;;;2.00;;
24137;SDS011;17947;50.672;6.076;2022-08-25T02:35:28;2.00;;;1.90;;
24137;SDS011;17947;50.672;6.076;2022-08-25T02:37:55;2.13;;;2.00;;
24137;SDS011;17947;50.672;6.076;2022-08-25T02:40:21;1.92;;;1.83;;
24137;SDS011;17947;50.672;6.076;2022-08-25T02:42:47;2.00;;;1.80;;
24137;SDS011;17947;50.672;6.076;2022-08-25T02:45:14;1.90;;;1.80;;
24137;SDS011;17947;50.672;6.076;2022-08-25T02:47:41;2.22;;;2.03;;
24137;SDS011;17947;50.672;6.076;2022-08-25T02:50:07;2.05;;;1.95;;
24137;SDS011;17947;50.672;6.076;2022-08-25T02:52:34;1.95;;;1.75;;
24137;SDS011;17947;50.672;6.076;2022-08-25T02:55:01;2.00;;;1.90;;
24137;SDS011;17947;50.672;6.076;2022-08-25T02:57:28;2.55;;;1.90;;
24137;SDS011;17947;50.672;6.076;2022-08-25T02:59:54;2.13;;;2.03;;
24137;SDS011;17947;50.672;6.076;2022-08-25T03:02:22;1.92;;;1.83;;
24137;SDS011;17947;50.672;6.076;2022-08-25T03:04:48;2.00;;;1.90;;
24137;SDS011;17947;50.672;6.076;2022-08-25T03:07:16;2.20;;;2.00;;
24137;SDS011;17947;50.672;6.076;2022-08-25T03:09:42;2.90;;;2.05;;
24137;SDS011;17947;50.672;6.076;2022-08-25T03:12:09;2.45;;;1.63;;
24137;SDS011;17947;50.672;6.076;2022-08-25T03:14:35;2.75;;;1.85;;
24137;SDS011;17947;50.672;6.076;2022-08-25T03:17:02;1.75;;;1.65;;
24137;SDS011;17947;50.672;6.076;2022-08-25T03:19:28;1.77;;;1.67;;
24137;SDS011;17947;50.672;6.076;2022-08-25T03:21:54;1.70;;;1.60;;
24137;SDS011;17947;50.672;6.076;2022-08-25T03:24:22;1.85;;;1.75;;
24137;SDS011;17947;50.672;6.076;2022-08-25T03:26:48;1.95;;;1.85;;
24137;SDS011;17947;50.672;6.076;2022-08-25T03:29:24;2.28;;;1.92;;
24137;SDS011;17947;50.672;6.076;2022-08-25T03:31:51;2.40;;;2.00;;
24137;SDS011;17947;50.672;6.076;2022-08-25T03:34:18;1.98;;;1.88;;
24137;SDS011;17947;50.672;6.076;2022-08-25T03:36:45;2.00;;;1.80;;
24137;SDS011;17947;50.672;6.076;2022-08-25T03:39:11;1.80;;;1.70;;
24137;SDS011;17947;50.672;6.076;2022-08-25T03:41:38;1.67;;;1.58;;
24137;SDS011;17947;50.672;6.076;2022-08-25T03:44:06;1.98;;;1.80;;
24137;SDS011;17947;50.672;6.076;2022-08-25T03:46:35;1.92;;;1.80;;
24137;SDS011;17947;50.672;6.076;2022-08-25T03:49:03;1.90;;;1.77;;
24137;SDS011;17947;50.672;6.076;2022-08-25T03:51:34;1.80;;;1.70;;
24137;SDS011;17947;50.672;6.076;2022-08-25T03:54:01;1.73;;;1.63;;
24137;SDS011;17947;50.672;6.076;2022-08-25T03:56:27;1.90;;;1.80;;
24137;SDS011;17947;50.672;6.076;2022-08-25T03:58:54;2.13;;;2.03;;
24137;SDS011;17947;50.672;6.076;2022-08-25T04:01:20;2.10;;;2.00;;
24137;SDS011;17947;50.672;6.076;2022-08-25T04:03:46;2.00;;;1.80;;
24137;SDS011;17947;50.672;6.076;2022-08-25T04:06:12;1.98;;;1.88;;
24137;SDS011;17947;50.672;6.076;2022-08-25T04:08:39;2.08;;;1.98;;
24137;SDS011;17947;50.672;6.076;2022-08-25T04:11:07;1.98;;;1.88;;
24137;SDS011;17947;50.672;6.076;2022-08-25T04:13:34;1.80;;;1.70;;
24137;SDS011;17947;50.672;6.076;2022-08-25T04:16:01;2.38;;;2.00;;
24137;SDS011;17947;50.672;6.076;2022-08-25T04:18:27;1.90;;;1.80;;
24137;SDS011;17947;50.672;6.076;2022-08-25T04:21:04;2.25;;;2.05;;
24137;SDS011;17947;50.672;6.076;2022-08-25T04:23:31;1.77;;;1.67;;
24137;SDS011;17947;50.672;6.076;2022-08-25T04:25:57;1.95;;;1.85;;
24137;SDS011;17947;50.672;6.076;2022-08-25T04:28:23;2.10;;;1.90;;
24137;SDS011;17947;50.672;6.076;2022-08-25T04:30:49;1.90;;;1.80;;
24137;SDS011;17947;50.672;6.076;2022-08-25T04:33:15;2.70;;;2.00;;
24137;SDS011;17947;50.672;6.076;2022-08-25T04:35:45;2.03;;;1.90;;
24137;SDS011;17947;50.672;6.076;2022-08-25T04:38:11;1.95;;;1.85;;
24137;SDS011;17947;50.672;6.076;2022-08-25T04:40:37;2.17;;;1.80;;
24137;SDS011;17947;50.672;6.076;2022-08-25T04:43:03;1.95;;;1.85;;
24137;SDS011;17947;50.672;6.076;2022-08-25T04:45:29;2.08;;;1.90;;
24137;SDS011;17947;50.672;6.076;2022-08-25T04:47:55;1.70;;;1.60;;
24137;SDS011;17947;50.672;6.076;2022-08-25T04:50:24;1.92;;;1.70;;
24137;SDS011;17947;50.672;6.076;2022-08-25T04:52:51;1.80;;;1.70;;
24137;SDS011;17947;50.672;6.076;2022-08-25T04:55:17;1.85;;;1.75;;
24137;SDS011;17947;50.672;6.076;2022-08-25T04:57:43;2.10;;;2.00;;
24137;SDS011;17947;50.672;6.076;2022-08-25T05:00:09;1.80;;;1.70;;
24137;SDS011;17947;50.672;6.076;2022-08-25T05:02:35;2.10;;;2.00;;
24137;SDS011;17947;50.672;6.076;2022-08-25T05:05:01;3.75;;;2.00;;
24137;SDS011;17947;50.672;6.076;2022-08-25T05:07:28;2.00;;;1.80;;
24137;SDS011;17947;50.672;6.076;2022-08-25T05:09:54;2.20;;;2.00;;
24137;SDS011;17947;50.672;6.076;2022-08-25T05:12:20;2.58;;;1.90;;
24137;SDS011;17947;50.672;6.076;2022-08-25T05:14:46;2.00;;;1.90;;
24137;SDS011;17947;50.672;6.076;2022-08-25T05:17:12;1.98;;;1.88;;
24137;SDS011;17947;50.672;6.076;2022-08-25T05:19:38;2.42;;;2.05;;
24137;SDS011;17947;50.672;6.076;2022-08-25T05:22:04;2.33;;;2.13;;
24137;SDS011;17947;50.672;6.076;2022-08-25T05:24:30;2.20;;;2.00;;
24137;SDS011;17947;50.672;6.076;2022-08-25T05:26:56;2.65;;;1.90;;
24137;SDS011;17947;50.672;6.076;2022-08-25T05:29:23;2.10;;;2.00;;
24137;SDS011;17947;50.672;6.076;2022-08-25T05:31:49;2.53;;;2.33;;
24137;SDS011;17947;50.672;6.076;2022-08-25T05:34:15;2.65;;;2.10;;
24137;SDS011;17947;50.672;6.076;2022-08-25T05:36:42;2.13;;;1.90;;
24137;SDS011;17947;50.672;6.076;2022-08-25T05:39:09;2.40;;;2.20;;
24137;SDS011;17947;50.672;6.076;2022-08-25T05:41:35;2.00;;;1.90;;
24137;SDS011;17947;50.672;6.076;2022-08-25T05:44:01;2.08;;;1.98;;
24137;SDS011;17947;50.672;6.076;2022-08-25T05:46:27;2.00;;;1.90;;
24137;SDS011;17947;50.672;6.076;2022-08-25T05:48:54;2.42;;;2.22;;
24137;SDS011;17947;50.672;6.076;2022-08-25T05:51:20;2.35;;;2.17;;
24137;SDS011;17947;50.672;6.076;2022-08-25T05:53:47;2.40;;;2.20;;
24137;SDS011;17947;50.672;6.076;2022-08-25T05:56:13;2.40;;;2.20;;
24137;SDS011;17947;50.672;6.076;2022-08-25T05:58:40;2.20;;;2.00;;
24137;SDS011;17947;50.672;6.076;2022-08-25T06:01:06;2.33;;;2.13;;
24137;SDS011;17947;50.672;6.076;2022-08-25T06:03:51;2.63;;;2.38;;
24137;SDS011;17947;50.672;6.076;2022-08-25T06:06:18;2.45;;;2.20;;
24137;SDS011;17947;50.672;6.076;2022-08-25T06:08:44;2.40;;;2.00;;
24137;SDS011;17947;50.672;6.076;2022-08-25T06:11:11;2.20;;;2.08;;
24137;SDS011;17947;50.672;6.076;2022-08-25T06:13:38;2.10;;;2.00;;
24137;SDS011;17947;50.672;6.076;2022-08-25T06:16:04;2.53;;;2.33;;
24137;SDS011;17947;50.672;6.076;2022-08-25T06:18:30;2.15;;;2.05;;
24137;SDS011;17947;50.672;6.076;2022-08-25T06:20:56;3.83;;;2.40;;
24137;SDS011;17947;50.672;6.076;2022-08-25T06:23:22;2.15;;;2.05;;
24137;SDS011;17947;50.672;6.076;2022-08-25T06:25:49;2.40;;;2.20;;
24137;SDS011;17947;50.672;6.076;2022-08-25T06:28:15;2.47;;;2.28;;
24137;SDS011;17947;50.672;6.076;2022-08-25T06:30:41;2.30;;;2.10;;
24137;SDS011;17947;50.672;6.076;2022-08-25T06:33:08;2.40;;;2.20;;
24137;SDS011;17947;50.672;6.076;2022-08-25T06:35:34;2.08;;;1.98;;
24137;SDS011;17947;50.672;6.076;2022-08-25T06:38:00;2.20;;;2.00;;
24137;SDS011;17947;50.672;6.076;2022-08-25T06:40:27;3.42;;;2.10;;
24137;SDS011;17947;50.672;6.076;2022-08-25T06:42:53;2.40;;;2.20;;
24137;SDS011;17947;50.672;6.076;2022-08-25T06:45:19;2.28;;;2.08;;
24137;SDS011;17947;50.672;6.076;2022-08-25T06:47:46;2.33;;;2.13;;
24137;SDS011;17947;50.672;6.076;2022-08-25T06:50:12;2.30;;;2.10;;
24137;SDS011;17947;50.672;6.076;2022-08-25T06:52:38;2.45;;;2.20;;
24137;SDS011;17947;50.672;6.076;2022-08-25T06:55:05;2.13;;;2.03;;
24137;SDS011;17947;50.672;6.076;2022-08-25T06:57:31;2.50;;;2.30;;
24137;SDS011;17947;50.672;6.076;2022-08-25T06:59:59;2.25;;;2.15;;
24137;SDS011;17947;50.672;6.076;2022-08-25T07:02:25;2.60;;;2.22;;
24137;SDS011;17947;50.672;6.076;2022-08-25T07:04:51;2.40;;;2.20;;
24137;SDS011;17947;50.672;6.076;2022-08-25T07:07:18;2.30;;;2.10;;
24137;SDS011;17947;50.672;6.076;2022-08-25T07:09:45;2.28;;;2.17;;
24137;SDS011;17947;50.672;6.076;2022-08-25T07:12:11;2.20;;;1.92;;
24137;SDS011;17947;50.672;6.076;2022-08-25T07:14:37;3.05;;;2.40;;
24137;SDS011;17947;50.672;6.076;2022-08-25T07:17:03;2.50;;;2.17;;
24137;SDS011;17947;50.672;6.076;2022-08-25T07:19:29;2.28;;;2.08;;
24137;SDS011;17947;50.672;6.076;2022-08-25T07:21:55;1.90;;;1.80;;
24137;SDS011;17947;50.672;6.076;2022-08-25T07:24:22;2.47;;;2.28;;
24137;SDS011;17947;50.672;6.076;2022-08-25T07:26:48;2.25;;;2.05;;
24137;SDS011;17947;50.672;6.076;2022-08-25T07:29:15;2.42;;;2.22;;
24137;SDS011;17947;50.672;6.076;2022-08-25T07:31:42;2.10;;;2.00;;
24137;SDS011;17947;50.672;6.076;2022-08-25T07:34:08;2.03;;;1.92;;
24137;SDS011;17947;50.672;6.076;2022-08-25T07:36:53;3.13;;;2.00;;
24137;SDS011;17947;50.672;6.076;2022-08-25T07:39:19;2.50;;;2.30;;
24137;SDS011;17947;50.672;6.076;2022-08-25T07:41:45;2.17;;;1.98;;
24137;SDS011;17947;50.672;6.076;2022-08-25T07:44:11;2.20;;;2.00;;
24137;SDS011;17947;50.672;6.076;2022-08-25T07:46:37;2.30;;;2.10;;
24137;SDS011;17947;50.672;6.076;2022-08-25T07:49:04;2.45;;;2.25;;
24137;SDS011;17947;50.672;6.076;2022-08-25T07:51:30;2.17;;;1.90;;
24137;SDS011;17947;50.672;6.076;2022-08-25T07:53:56;2.85;;;2.33;;
24137;SDS011;17947;50.672;6.076;2022-08-25T07:56:22;2.13;;;2.00;;
24137;SDS011;17947;50.672;6.076;2022-08-25T07:58:48;2.40;;;2.20;;
24137;SDS011;17947;50.672;6.076;2022-08-25T08:01:18;2.47;;;2.28;;
24137;SDS011;17947;50.672;6.076;2022-08-25T08:03:45;2.08;;;1.98;;
24137;SDS011;17947;50.672;6.076;2022-08-25T08:06:12;1.83;;;1.73;;
24137;SDS011;17947;50.672;6.076;2022-08-25T08:08:39;2.00;;;1.90;;
24137;SDS011;17947;50.672;6.076;2022-08-25T08:11:18;2.08;;;1.95;;
24137;SDS011;17947;50.672;6.076;2022-08-25T08:13:45;2.10;;;2.00;;
24137;SDS011;17947;50.672;6.076;2022-08-25T08:16:12;2.55;;;2.35;;
24137;SDS011;17947;50.672;6.076;2022-08-25T08:18:39;2.47;;;2.28;;
24137;SDS011;17947;50.672;6.076;2022-08-25T08:21:09;2.40;;;1.90;;
24137;SDS011;17947;50.672;6.076;2022-08-25T08:23:36;2.00;;;1.90;;
24137;SDS011;17947;50.672;6.076;2022-08-25T08:26:03;2.30;;;2.10;;
24137;SDS011;17947;50.672;6.076;2022-08-25T08:28:29;2.03;;;1.92;;
24137;SDS011;17947;50.672;6.076;2022-08-25T08:30:55;2.30;;;2.10;;
24137;SDS011;17947;50.672;6.076;2022-08-25T08:33:22;2.75;;;1.80;;
24137;SDS011;17947;50.672;6.076;2022-08-25T08:36:10;2.20;;;2.00;;
24137;SDS011;17947;50.672;6.076;2022-08-25T08:38:36;2.22;;;2.03;;
24137;SDS011;17947;50.672;6.076;2022-08-25T08:44:18;2.42;;;2.20;;
24137;SDS011;17947;50.672;6.076;2022-08-25T08:49:37;1.98;;;1.88;;
24137;SDS011;17947;50.672;6.076;2022-08-25T08:52:06;2.00;;;1.90;;
24137;SDS011;17947;50.672;6.076;2022-08-25T08:54:34;2.03;;;1.92;;
24137;SDS011;17947;50.672;6.076;2022-08-25T08:57:08;2.25;;;2.05;;
24137;SDS011;17947;50.672;6.076;2022-08-25T08:59:40;2.45;;;2.25;;
24137;SDS011;17947;50.672;6.076;2022-08-25T09:02:11;1.92;;;1.83;;
24137;SDS011;17947;50.672;6.076;2022-08-25T09:04:50;2.30;;;2.10;;
24137;SDS011;17947;50.672;6.076;2022-08-25T09:07:21;2.00;;;1.90;;
24137;SDS011;17947;50.672;6.076;2022-08-25T09:09:48;2.50;;;2.30;;
24137;SDS011;17947;50.672;6.076;2022-08-25T09:15:32;2.45;;;2.00;;
24137;SDS011;17947;50.672;6.076;2022-08-25T09:23:17;2.10;;;1.90;;
24137;SDS011;17947;50.672;6.076;2022-08-25T09:31:21;1.83;;;1.73;;
24137;SDS011;17947;50.672;6.076;2022-08-25T09:33:47;2.20;;;2.00;;
24137;SDS011;17947;50.672;6.076;2022-08-25T09:36:13;2.17;;;1.98;;
24137;SDS011;17947;50.672;6.076;2022-08-25T09:38:39;1.95;;;1.85;;
24137;SDS011;17947;50.672;6.076;2022-08-25T09:41:05;1.95;;;1.70;;
24137;SDS011;17947;50.672;6.076;2022-08-25T09:51:09;2.28;;;2.08;;
24137;SDS011;17947;50.672;6.076;2022-08-25T09:53:37;2.38;;;2.08;;
24137;SDS011;17947;50.672;6.076;2022-08-25T09:56:08;1.98;;;1.88;;
24137;SDS011;17947;50.672;6.076;2022-08-25T09:58:36;2.20;;;2.00;;
24137;SDS011;17947;50.672;6.076;2022-08-25T10:01:13;2.10;;;2.00;;
24137;SDS011;17947;50.672;6.076;2022-08-25T10:03:53;2.30;;;2.10;;
24137;SDS011;17947;50.672;6.076;2022-08-25T10:06:19;2.05;;;1.95;;
24137;SDS011;17947;50.672;6.076;2022-08-25T10:11:13;1.80;;;1.70;;
24137;SDS011;17947;50.672;6.076;2022-08-25T10:13:42;2.28;;;2.08;;
24137;SDS011;17947;50.672;6.076;2022-08-25T10:16:10;1.80;;;1.70;;
24137;SDS011;17947;50.672;6.076;2022-08-25T10:18:36;2.03;;;1.83;;
24137;SDS011;17947;50.672;6.076;2022-08-25T10:21:13;1.88;;;1.77;;
24137;SDS011;17947;50.672;6.076;2022-08-25T10:23:48;1.85;;;1.75;;
24137;SDS011;17947;50.672;6.076;2022-08-25T10:28:53;2.30;;;2.10;;
24137;SDS011;17947;50.672;6.076;2022-08-25T10:31:28;2.00;;;1.90;;
24137;SDS011;17947;50.672;6.076;2022-08-25T10:42:22;2.08;;;1.98;;
24137;SDS011;17947;50.672;6.076;2022-08-25T10:47:54;1.80;;;1.70;;
24137;SDS011;17947;50.672;6.076;2022-08-25T11:00:47;2.10;;;1.90;;
24137;SDS011;17947;50.672;6.076;2022-08-25T11:05:54;2.20;;;2.00;;
24137;SDS011;17947;50.672;6.076;2022-08-25T11:08:34;2.30;;;2.10;;
24137;SDS011;17947;50.672;6.076;2022-08-25T11:13:46;1.55;;;1.45;;
24137;SDS011;17947;50.672;6.076;2022-08-25T11:16:17;2.28;;;2.10;;
24137;SDS011;17947;50.672;6.076;2022-08-25T11:18:45;1.83;;;1.73;;
24137;SDS011;17947;50.672;6.076;2022-08-25T11:21:15;1.80;;;1.70;;
24137;SDS011;17947;50.672;6.076;2022-08-25T11:23:46;2.00;;;1.90;;
24137;SDS011;17947;50.672;6.076;2022-08-25T11:26:16;2.10;;;2.00;;
24137;SDS011;17947;50.672;6.076;2022-08-25T11:28:56;2.65;;;2.05;;
24137;SDS011;17947;50.672;6.076;2022-08-25T11:31:23;1.70;;;1.60;;
24137;SDS011;17947;50.672;6.076;2022-08-25T11:33:51;2.03;;;1.83;;
24137;SDS011;17947;50.672;6.076;2022-08-25T11:36:33;2.03;;;1.80;;
24137;SDS011;17947;50.672;6.076;2022-08-25T11:44:35;2.20;;;2.00;;
24137;SDS011;17947;50.672;6.076;2022-08-25T11:47:09;1.80;;;1.70;;
24137;SDS011;17947;50.672;6.076;2022-08-25T11:54:53;1.98;;;1.60;;
24137;SDS011;17947;50.672;6.076;2022-08-25T11:57:21;2.03;;;1.92;;
24137;SDS011;17947;50.672;6.076;2022-08-25T12:04:57;2.03;;;1.92;;
24137;SDS011;17947;50.672;6.076;2022-08-25T12:07:24;1.98;;;1.80;;
24137;SDS011;17947;50.672;6.076;2022-08-25T12:12:36;2.03;;;1.92;;
24137;SDS011;17947;50.672;6.076;2022-08-25T12:15:13;2.05;;;1.95;;
24137;SDS011;17947;50.672;6.076;2022-08-25T12:17:40;1.80;;;1.70;;
24137;SDS011;17947;50.672;6.076;2022-08-25T12:20:06;2.30;;;2.00;;
24137;SDS011;17947;50.672;6.076;2022-08-25T12:25:12;2.08;;;1.92;;
24137;SDS011;17947;50.672;6.076;2022-08-25T12:27:43;2.53;;;1.63;;
24137;SDS011;17947;50.672;6.076;2022-08-25T12:30:48;1.90;;;1.80;;
24137;SDS011;17947;50.672;6.076;2022-08-25T12:43:08;2.05;;;1.85;;
24137;SDS011;17947;50.672;6.076;2022-08-25T12:45:37;2.20;;;2.00;;
24137;SDS011;17947;50.672;6.076;2022-08-25T12:50:48;2.55;;;2.00;;
24137;SDS011;17947;50.672;6.076;2022-08-25T12:53:38;2.35;;;2.10;;
24137;SDS011;17947;50.672;6.076;2022-08-25T12:56:06;2.15;;;1.80;;
24137;SDS011;17947;50.672;6.076;2022-08-25T12:58:35;2.40;;;2.17;;
24137;SDS011;17947;50.672;6.076;2022-08-25T13:01:12;2.75;;;2.20;;
24137;SDS011;17947;50.672;6.076;2022-08-25T13:11:59;3.78;;;2.03;;
24137;SDS011;17947;50.672;6.076;2022-08-25T13:16:56;3.33;;;2.17;;
24137;SDS011;17947;50.672;6.076;2022-08-25T13:19:22;2.65;;;2.25;;
24137;SDS011;17947;50.672;6.076;2022-08-25T13:21:49;3.90;;;2.60;;
24137;SDS011;17947;50.672;6.076;2022-08-25T13:26:53;3.78;;;2.40;;
24137;SDS011;17947;50.672;6.076;2022-08-25T13:29:22;4.18;;;2.33;;
24137;SDS011;17947;50.672;6.076;2022-08-25T13:31:49;3.97;;;2.40;;
24137;SDS011;17947;50.672;6.076;2022-08-25T13:34:16;3.47;;;2.55;;
24137;SDS011;17947;50.672;6.076;2022-08-25T13:36:43;5.05;;;2.70;;
24137;SDS011;17947;50.672;6.076;2022-08-25T13:39:29;4.40;;;2.42;;
24137;SDS011;17947;50.672;6.076;2022-08-25T13:41:57;3.97;;;2.30;;
24137;SDS011;17947;50.672;6.076;2022-08-25T13:44:24;3.42;;;2.80;;
24137;SDS011;17947;50.672;6.076;2022-08-25T13:49:49;4.90;;;2.90;;
24137;SDS011;17947;50.672;6.076;2022-08-25T13:52:23;6.07;;;2.88;;
24137;SDS011;17947;50.672;6.076;2022-08-25T13:54:50;4.20;;;2.70;;
24137;SDS011;17947;50.672;6.076;2022-08-25T13:57:18;3.17;;;2.55;;
24137;SDS011;17947;50.672;6.076;2022-08-25T13:59:48;3.15;;;2.33;;
24137;SDS011;17947;50.672;6.076;2022-08-25T14:02:25;4.75;;;2.60;;
24137;SDS011;17947;50.672;6.076;2022-08-25T14:05:00;3.60;;;2.55;;
24137;SDS011;17947;50.672;6.076;2022-08-25T14:07:28;3.45;;;2.53;;
24137;SDS011;17947;50.672;6.076;2022-08-25T14:17:59;4.93;;;2.95;;
24137;SDS011;17947;50.672;6.076;2022-08-25T14:20:27;3.63;;;2.80;;
24137;SDS011;17947;50.672;6.076;2022-08-25T14:23:05;4.65;;;2.60;;
24137;SDS011;17947;50.672;6.076;2022-08-25T14:25:32;4.32;;;3.03;;
24137;SDS011;17947;50.672;6.076;2022-08-25T14:28:00;4.05;;;2.67;;
24137;SDS011;17947;50.672;6.076;2022-08-25T14:30:27;4.75;;;2.58;;
24137;SDS011;17947;50.672;6.076;2022-08-25T14:32:54;4.72;;;2.60;;
24137;SDS011;17947;50.672;6.076;2022-08-25T14:35:20;4.70;;;2.97;;
24137;SDS011;17947;50.672;6.076;2022-08-25T14:37:46;4.00;;;3.05;;
24137;SDS011;17947;50.672;6.076;2022-08-25T14:40:13;5.05;;;2.85;;
24137;SDS011;17947;50.672;6.076;2022-08-25T14:42:43;4.90;;;3.40;;
24137;SDS011;17947;50.672;6.076;2022-08-25T14:45:10;4.85;;;3.08;;
24137;SDS011;17947;50.672;6.076;2022-08-25T14:47:36;4.40;;;3.03;;
24137;SDS011;17947;50.672;6.076;2022-08-25T14:50:02;5.78;;;3.10;;
24137;SDS011;17947;50.672;6.076;2022-08-25T14:52:28;5.82;;;2.83;;
24137;SDS011;17947;50.672;6.076;2022-08-25T14:54:55;4.38;;;3.10;;
24137;SDS011;17947;50.672;6.076;2022-08-25T14:57:22;5.60;;;3.13;;
24137;SDS011;17947;50.672;6.076;2022-08-25T14:59:48;4.18;;;3.03;;
24137;SDS011;17947;50.672;6.076;2022-08-25T15:02:15;5.75;;;3.15;;
24137;SDS011;17947;50.672;6.076;2022-08-25T15:04:51;5.78;;;3.03;;
24137;SDS011;17947;50.672;6.076;2022-08-25T15:07:18;4.88;;;3.35;;
24137;SDS011;17947;50.672;6.076;2022-08-25T15:10:03;4.97;;;3.33;;
24137;SDS011;17947;50.672;6.076;2022-08-25T15:12:29;5.00;;;3.30;;
24137;SDS011;17947;50.672;6.076;2022-08-25T15:14:55;7.45;;;3.70;;
24137;SDS011;17947;50.672;6.076;2022-08-25T15:17:22;7.22;;;3.70;;
24137;SDS011;17947;50.672;6.076;2022-08-25T15:19:48;5.13;;;3.33;;
24137;SDS011;17947;50.672;6.076;2022-08-25T15:22:14;5.55;;;3.50;;
24137;SDS011;17947;50.672;6.076;2022-08-25T15:24:40;6.68;;;3.60;;
24137;SDS011;17947;50.672;6.076;2022-08-25T15:27:06;5.82;;;3.58;;
24137;SDS011;17947;50.672;6.076;2022-08-25T15:29:33;7.22;;;3.80;;
24137;SDS011;17947;50.672;6.076;2022-08-25T15:32:00;5.15;;;3.70;;
24137;SDS011;17947;50.672;6.076;2022-08-25T15:34:26;5.53;;;3.50;;
24137;SDS011;17947;50.672;6.076;2022-08-25T15:36:52;5.93;;;3.90;;
24137;SDS011;17947;50.672;6.076;2022-08-25T15:39:18;5.30;;;3.30;;
24137;SDS011;17947;50.672;6.076;2022-08-25T15:41:45;5.85;;;3.60;;
24137;SDS011;17947;50.672;6.076;2022-08-25T15:44:16;6.18;;;3.70;;
24137;SDS011;17947;50.672;6.076;2022-08-25T15:46:43;5.90;;;3.60;;
24137;SDS011;17947;50.672;6.076;2022-08-25T15:49:10;7.22;;;3.67;;
24137;SDS011;17947;50.672;6.076;2022-08-25T15:51:36;6.05;;;3.65;;
24137;SDS011;17947;50.672;6.076;2022-08-25T15:54:02;5.18;;;3.50;;
24137;SDS011;17947;50.672;6.076;2022-08-25T15:56:28;6.50;;;3.88;;
24137;SDS011;17947;50.672;6.076;2022-08-25T15:58:55;6.78;;;3.55;;
24137;SDS011;17947;50.672;6.076;2022-08-25T16:01:22;6.13;;;3.70;;
24137;SDS011;17947;50.672;6.076;2022-08-25T16:03:49;6.80;;;4.03;;
24137;SDS011;17947;50.672;6.076;2022-08-25T16:06:15;6.78;;;3.97;;
24137;SDS011;17947;50.672;6.076;2022-08-25T16:08:41;5.10;;;3.35;;
24137;SDS011;17947;50.672;6.076;2022-08-25T16:11:18;6.07;;;3.85;;
24137;SDS011;17947;50.672;6.076;2022-08-25T16:13:45;7.00;;;3.88;;
24137;SDS011;17947;50.672;6.076;2022-08-25T16:16:12;6.10;;;3.83;;
24137;SDS011;17947;50.672;6.076;2022-08-25T16:18:38;6.80;;;3.70;;
24137;SDS011;17947;50.672;6.076;2022-08-25T16:21:07;5.65;;;3.78;;
24137;SDS011;17947;50.672;6.076;2022-08-25T16:23:33;5.78;;;3.45;;
24137;SDS011;17947;50.672;6.076;2022-08-25T16:26:02;5.82;;;3.70;;
24137;SDS011;17947;50.672;6.076;2022-08-25T16:28:28;6.15;;;4.13;;
24137;SDS011;17947;50.672;6.076;2022-08-25T16:30:54;6.32;;;3.88;;
24137;SDS011;17947;50.672;6.076;2022-08-25T16:33:20;7.70;;;3.70;;
24137;SDS011;17947;50.672;6.076;2022-08-25T16:35:46;7.95;;;4.18;;
24137;SDS011;17947;50.672;6.076;2022-08-25T16:38:13;6.00;;;3.75;;
24137;SDS011;17947;50.672;6.076;2022-08-25T16:40:40;6.25;;;4.00;;
24137;SDS011;17947;50.672;6.076;2022-08-25T16:43:07;6.97;;;3.65;;
24137;SDS011;17947;50.672;6.076;2022-08-25T16:45:33;8.38;;;4.50;;
24137;SDS011;17947;50.672;6.076;2022-08-25T16:47:59;5.68;;;3.83;;
24137;SDS011;17947;50.672;6.076;2022-08-25T16:50:25;6.93;;;3.60;;
24137;SDS011;17947;50.672;6.076;2022-08-25T16:52:54;5.05;;;3.45;;